NORTHEAST SUFFOLK  -  Winter Weather Advisory Winter Weather Advisory        NORTHERN NASSAU  -  Winter Weather Advisory Winter Weather Advisory        NORTHWEST SUFFOLK  -  Winter Weather Advisory Winter Weather Advisory        SOUTHEAST SUFFOLK  -  Winter Weather Advisory Winter Weather Advisory        SOUTHERN NASSAU  -  Winter Weather Advisory Winter Weather Advisory        SOUTHWEST SUFFOLK  -  Winter Weather Advisory Winter Weather Advisory      

Active alerts

Northern Nassau
  Details for Northern Nassau Winter Weather Advisory
Southern Nassau
  Details for Southern Nassau Winter Weather Advisory
Northwest Suffolk
  Details for Northwest Suffolk Winter Weather Advisory
Southwest Suffolk
  Details for Southwest Suffolk Winter Weather Advisory
Northeast Suffolk
  Details for Northeast Suffolk Winter Weather Advisory
Southeast Suffolk
  Details for Southeast Suffolk Winter Weather Advisory


WXM80 ListenWXM80 Stop

You find our weather info also at:

UK Metoffice

WeatherCloud

Weather Underground

Northeastern Weather Network

AWEKAS

Citizen Weather Observer Program (CWOP)

HAMweather, WeatherForYou, PWS Weather


Weather Underground History page Text

Daily Summary for June 30, 2017 Units:  Both    English   Metric
« Previous Day
Next Day »
Daily Weekly Monthly Yearly Custom
  High: Low: Average:
Temperature: 88.0 °F /  31.1 °C 69.4 °F /  20.8 °C 77.1 °F /  25.1 °C
Dew Point: 73.3 °F /  22.9 °C 60.3 °F /  15.7 °C 67.6 °F /  19.8 °C
Humidity: 84 % 60 % 73 %
Wind Speed: 6.1 mph /  9.8 km/h - 2.1 mph /  3.4 km/h
Wind Gust: 13.0 mph /  20.9 km/h - -
Wind:- - SSW
Pressure: 29.99 in /  1015.5 hPa 29.85 in /  1010.7 hPa -
Precipitation: 0.02 in /  0.51 mm    
Historical Graphs
 
 
Tabular Data for June 30, 2017
Time Temperature Dew Point Pressure Wind Wind Speed Wind Gust Humidity Rainfall Rate (Hourly)
00:01 71.5 °F /  21.9 °C 61.6 °F /  16.4 °C 29.99 in /  1015.5 hPa West 1.8 mph /  2.9 km/h 3.5 mph /  5.6 km/h 71 % 0.00 in /  0 mm
00:06 71.4 °F /  21.9 °C 61.5 °F /  16.4 °C 29.98 in /  1015.1 hPa SSW 3.1 mph /  5 km/h 5.8 mph /  9.3 km/h 71 % 0.00 in /  0 mm
00:09 71.4 °F /  21.9 °C 61.5 °F /  16.4 °C 29.99 in /  1015.5 hPa SW 2.7 mph /  4.3 km/h 4.6 mph /  7.4 km/h 71 % 0.00 in /  0 mm
00:14 71.4 °F /  21.9 °C 61.5 °F /  16.4 °C 29.99 in /  1015.5 hPa South 1.7 mph /  2.7 km/h 6.9 mph /  11.1 km/h 71 % 0.00 in /  0 mm
00:19 71.4 °F /  21.9 °C 61.1 °F /  16.2 °C 29.98 in /  1015.1 hPa SW 2.7 mph /  4.3 km/h 5.0 mph /  8 km/h 70 % 0.00 in /  0 mm
00:24 71.3 °F /  21.8 °C 61.0 °F /  16.1 °C 29.98 in /  1015.1 hPa SSW 1.1 mph /  1.8 km/h 3.5 mph /  5.6 km/h 70 % 0.00 in /  0 mm
00:29 71.3 °F /  21.8 °C 61.0 °F /  16.1 °C 29.98 in /  1015.1 hPa SSW 1.7 mph /  2.7 km/h 2.3 mph /  3.7 km/h 70 % 0.00 in /  0 mm
00:34 71.3 °F /  21.8 °C 61.0 °F /  16.1 °C 29.98 in /  1015.1 hPa SSW 1.5 mph /  2.4 km/h 3.5 mph /  5.6 km/h 70 % 0.00 in /  0 mm
00:39 71.2 °F /  21.8 °C 60.9 °F /  16.1 °C 29.98 in /  1015.1 hPa SSW 2.2 mph /  3.5 km/h 6.0 mph /  9.7 km/h 70 % 0.00 in /  0 mm
00:44 71.2 °F /  21.8 °C 60.9 °F /  16.1 °C 29.98 in /  1015.1 hPa SSE 1.3 mph /  2.1 km/h 3.5 mph /  5.6 km/h 70 % 0.00 in /  0 mm
00:49 71.1 °F /  21.7 °C 60.8 °F /  16 °C 29.98 in /  1015.1 hPa SSW 2.2 mph /  3.5 km/h 3.5 mph /  5.6 km/h 70 % 0.00 in /  0 mm
00:54 71.1 °F /  21.7 °C 60.8 °F /  16 °C 29.98 in /  1015.1 hPa SSW 2.1 mph /  3.4 km/h 3.5 mph /  5.6 km/h 70 % 0.00 in /  0 mm
00:59 71.0 °F /  21.7 °C 60.3 °F /  15.7 °C 29.98 in /  1015.1 hPa SW 1.9 mph /  3.1 km/h 5.8 mph /  9.3 km/h 69 % 0.00 in /  0 mm
01:04 71.0 °F /  21.7 °C 60.7 °F /  15.9 °C 29.98 in /  1015.1 hPa SSW 0.7 mph /  1.1 km/h 3.5 mph /  5.6 km/h 70 % 0.00 in /  0 mm
01:09 70.9 °F /  21.6 °C 60.6 °F /  15.9 °C 29.98 in /  1015.1 hPa SW 1.6 mph /  2.6 km/h 3.5 mph /  5.6 km/h 70 % 0.00 in /  0 mm
01:14 70.8 °F /  21.6 °C 60.5 °F /  15.8 °C 29.98 in /  1015.1 hPa ESE 3.6 mph /  5.8 km/h 4.6 mph /  7.4 km/h 70 % 0.00 in /  0 mm
01:19 70.8 °F /  21.6 °C 60.5 °F /  15.8 °C 29.98 in /  1015.1 hPa SSW 2.5 mph /  4 km/h 7.0 mph /  11.3 km/h 70 % 0.00 in /  0 mm
01:24 70.7 °F /  21.5 °C 60.4 °F /  15.8 °C 29.98 in /  1015.1 hPa SSW 0.8 mph /  1.3 km/h 3.5 mph /  5.6 km/h 70 % 0.00 in /  0 mm
01:29 70.7 °F /  21.5 °C 60.4 °F /  15.8 °C 29.98 in /  1015.1 hPa WSW 2.2 mph /  3.5 km/h 3.5 mph /  5.6 km/h 70 % 0.00 in /  0 mm
01:35 70.6 °F /  21.4 °C 60.3 °F /  15.7 °C 29.98 in /  1015.1 hPa SSW 3.4 mph /  5.5 km/h 9.2 mph /  14.8 km/h 70 % 0.00 in /  0 mm
01:38 70.6 °F /  21.4 °C 60.3 °F /  15.7 °C 29.98 in /  1015.1 hPa SW 1.1 mph /  1.8 km/h 2.3 mph /  3.7 km/h 70 % 0.00 in /  0 mm
01:44 70.6 °F /  21.4 °C 60.3 °F /  15.7 °C 29.98 in /  1015.1 hPa WSW 1.4 mph /  2.3 km/h 3.5 mph /  5.6 km/h 70 % 0.00 in /  0 mm
01:49 70.6 °F /  21.4 °C 60.7 °F /  15.9 °C 29.98 in /  1015.1 hPa WSW 2.5 mph /  4 km/h 6.9 mph /  11.1 km/h 71 % 0.00 in /  0 mm
01:53 70.5 °F /  21.4 °C 60.6 °F /  15.9 °C 29.98 in /  1015.1 hPa WSW 0.8 mph /  1.3 km/h 3.5 mph /  5.6 km/h 71 % 0.00 in /  0 mm
01:58 70.5 °F /  21.4 °C 60.6 °F /  15.9 °C 29.98 in /  1015.1 hPa WSW 0.1 mph /  0.2 km/h 3.5 mph /  5.6 km/h 71 % 0.00 in /  0 mm
02:04 70.4 °F /  21.3 °C 60.5 °F /  15.8 °C 29.97 in /  1014.8 hPa West 1.8 mph /  2.9 km/h 8.0 mph /  12.9 km/h 71 % 0.00 in /  0 mm
02:09 70.4 °F /  21.3 °C 60.5 °F /  15.8 °C 29.97 in /  1014.8 hPa SW 0.9 mph /  1.4 km/h 3.5 mph /  5.6 km/h 71 % 0.00 in /  0 mm
02:14 70.4 °F /  21.3 °C 60.9 °F /  16.1 °C 29.97 in /  1014.8 hPa WSW 2.3 mph /  3.7 km/h 4.0 mph /  6.4 km/h 72 % 0.00 in /  0 mm
02:19 70.4 °F /  21.3 °C 60.9 °F /  16.1 °C 29.97 in /  1014.8 hPa NW 2.8 mph /  4.5 km/h 7.0 mph /  11.3 km/h 72 % 0.00 in /  0 mm
02:24 70.4 °F /  21.3 °C 60.9 °F /  16.1 °C 29.97 in /  1014.8 hPa SSW 1.4 mph /  2.3 km/h 5.8 mph /  9.3 km/h 72 % 0.00 in /  0 mm
02:29 70.5 °F /  21.4 °C 61.0 °F /  16.1 °C 29.97 in /  1014.8 hPa South 1.2 mph /  1.9 km/h 1.2 mph /  1.9 km/h 72 % 0.00 in /  0 mm
02:34 70.5 °F /  21.4 °C 61.0 °F /  16.1 °C 29.97 in /  1014.8 hPa SW 1.9 mph /  3.1 km/h 4.6 mph /  7.4 km/h 72 % 0.00 in /  0 mm
02:39 70.6 °F /  21.4 °C 61.1 °F /  16.2 °C 29.97 in /  1014.8 hPa SW 1.8 mph /  2.9 km/h 6.9 mph /  11.1 km/h 72 % 0.00 in /  0 mm
02:44 70.6 °F /  21.4 °C 61.1 °F /  16.2 °C 29.97 in /  1014.8 hPa WSW 1.5 mph /  2.4 km/h 3.5 mph /  5.6 km/h 72 % 0.00 in /  0 mm
02:49 70.6 °F /  21.4 °C 61.5 °F /  16.4 °C 29.97 in /  1014.8 hPa SW 1.6 mph /  2.6 km/h 4.0 mph /  6.4 km/h 73 % 0.00 in /  0 mm
02:54 70.7 °F /  21.5 °C 61.2 °F /  16.2 °C 29.97 in /  1014.8 hPa SW 0.7 mph /  1.1 km/h 3.5 mph /  5.6 km/h 72 % 0.00 in /  0 mm
02:59 70.7 °F /  21.5 °C 61.6 °F /  16.4 °C 29.97 in /  1014.8 hPa WSW 4.3 mph /  6.9 km/h 5.0 mph /  8 km/h 73 % 0.00 in /  0 mm
03:04 70.7 °F /  21.5 °C 61.6 °F /  16.4 °C 29.97 in /  1014.8 hPa SSE 1.4 mph /  2.3 km/h 3.5 mph /  5.6 km/h 73 % 0.00 in /  0 mm
03:09 70.8 °F /  21.6 °C 61.7 °F /  16.5 °C 29.97 in /  1014.8 hPa SW 3.4 mph /  5.5 km/h 9.0 mph /  14.5 km/h 73 % 0.00 in /  0 mm
03:14 70.8 °F /  21.6 °C 61.7 °F /  16.5 °C 29.96 in /  1014.4 hPa SW 3.7 mph /  6 km/h 10.4 mph /  16.7 km/h 73 % 0.00 in /  0 mm
03:19 70.9 °F /  21.6 °C 61.8 °F /  16.6 °C 29.96 in /  1014.4 hPa SW 2.3 mph /  3.7 km/h 8.1 mph /  13 km/h 73 % 0.00 in /  0 mm
03:24 70.9 °F /  21.6 °C 61.8 °F /  16.6 °C 29.96 in /  1014.4 hPa SW 1.8 mph /  2.9 km/h 4.6 mph /  7.4 km/h 73 % 0.00 in /  0 mm
03:29 71.0 °F /  21.7 °C 61.9 °F /  16.6 °C 29.96 in /  1014.4 hPa WSW 1.0 mph /  1.6 km/h 3.5 mph /  5.6 km/h 73 % 0.00 in /  0 mm
03:34 71.0 °F /  21.7 °C 61.9 °F /  16.6 °C 29.96 in /  1014.4 hPa SSW 3.2 mph /  5.1 km/h 3.5 mph /  5.6 km/h 73 % 0.00 in /  0 mm
03:40 71.0 °F /  21.7 °C 61.9 °F /  16.6 °C 29.95 in /  1014.1 hPa WSW 2.8 mph /  4.5 km/h 3.5 mph /  5.6 km/h 73 % 0.00 in /  0 mm
03:45 71.0 °F /  21.7 °C 61.9 °F /  16.6 °C 29.95 in /  1014.1 hPa SSW 1.8 mph /  2.9 km/h 3.5 mph /  5.6 km/h 73 % 0.00 in /  0 mm
03:50 71.0 °F /  21.7 °C 62.3 °F /  16.8 °C 29.95 in /  1014.1 hPa WSW 3.3 mph /  5.3 km/h 6.9 mph /  11.1 km/h 74 % 0.00 in /  0 mm
03:55 71.0 °F /  21.7 °C 62.3 °F /  16.8 °C 29.95 in /  1014.1 hPa SSW 0.6 mph /  1 km/h 3.5 mph /  5.6 km/h 74 % 0.00 in /  0 mm
04:00 70.9 °F /  21.6 °C 62.6 °F /  17 °C 29.95 in /  1014.1 hPa West 0.1 mph /  0.2 km/h 2.3 mph /  3.7 km/h 75 % 0.00 in /  0 mm
04:05 70.9 °F /  21.6 °C 62.6 °F /  17 °C 29.95 in /  1014.1 hPa WSW 5.0 mph /  8 km/h 8.1 mph /  13 km/h 75 % 0.00 in /  0 mm
04:10 70.8 °F /  21.6 °C 62.5 °F /  16.9 °C 29.95 in /  1014.1 hPa SW 2.2 mph /  3.5 km/h 3.5 mph /  5.6 km/h 75 % 0.00 in /  0 mm
04:15 70.8 °F /  21.6 °C 62.5 °F /  16.9 °C 29.94 in /  1013.8 hPa SSW 0.4 mph /  0.6 km/h 2.3 mph /  3.7 km/h 75 % 0.00 in /  0 mm
04:20 70.7 °F /  21.5 °C 62.8 °F /  17.1 °C 29.95 in /  1014.1 hPa WSW 2.8 mph /  4.5 km/h 3.5 mph /  5.6 km/h 76 % 0.00 in /  0 mm
04:25 70.7 °F /  21.5 °C 62.8 °F /  17.1 °C 29.95 in /  1014.1 hPa WSW 2.0 mph /  3.2 km/h 3.5 mph /  5.6 km/h 76 % 0.00 in /  0 mm
04:30 70.7 °F /  21.5 °C 62.8 °F /  17.1 °C 29.95 in /  1014.1 hPa West 0.7 mph /  1.1 km/h 3.0 mph /  4.8 km/h 76 % 0.00 in /  0 mm
04:35 70.6 °F /  21.4 °C 62.7 °F /  17.1 °C 29.95 in /  1014.1 hPa SW 5.3 mph /  8.5 km/h 8.1 mph /  13 km/h 76 % 0.00 in /  0 mm
04:40 70.6 °F /  21.4 °C 62.7 °F /  17.1 °C 29.95 in /  1014.1 hPa SSW 2.3 mph /  3.7 km/h 5.8 mph /  9.3 km/h 76 % 0.00 in /  0 mm
04:45 70.5 °F /  21.4 °C 62.9 °F /  17.2 °C 29.95 in /  1014.1 hPa SW 0.3 mph /  0.5 km/h 5.8 mph /  9.3 km/h 77 % 0.00 in /  0 mm
04:50 70.4 °F /  21.3 °C 62.8 °F /  17.1 °C 29.95 in /  1014.1 hPa SW 0.1 mph /  0.2 km/h 1.2 mph /  1.9 km/h 77 % 0.00 in /  0 mm
04:51 70.4 °F /  21.3 °C 62.8 °F /  17.1 °C 29.95 in /  1014.1 hPa SW 0.3 mph /  0.5 km/h 3.0 mph /  4.8 km/h 77 % 0.00 in /  0 mm
04:56 70.3 °F /  21.3 °C 62.7 °F /  17.1 °C 29.95 in /  1014.1 hPa WSW 0.2 mph /  0.3 km/h 2.3 mph /  3.7 km/h 77 % 0.00 in /  0 mm
05:01 70.2 °F /  21.2 °C 63.0 °F /  17.2 °C 29.95 in /  1014.1 hPa West 1.4 mph /  2.3 km/h 3.5 mph /  5.6 km/h 78 % 0.00 in /  0 mm
05:06 70.0 °F /  21.1 °C 62.8 °F /  17.1 °C 29.95 in /  1014.1 hPa WSW 1.4 mph /  2.3 km/h 3.5 mph /  5.6 km/h 78 % 0.00 in /  0 mm
05:11 69.9 °F /  21.1 °C 62.7 °F /  17.1 °C 29.95 in /  1014.1 hPa West 0.7 mph /  1.1 km/h 3.0 mph /  4.8 km/h 78 % 0.00 in /  0 mm
05:16 69.7 °F /  20.9 °C 62.9 °F /  17.2 °C 29.95 in /  1014.1 hPa SW 1.3 mph /  2.1 km/h 4.0 mph /  6.4 km/h 79 % 0.00 in /  0 mm
05:21 69.6 °F /  20.9 °C 62.8 °F /  17.1 °C 29.95 in /  1014.1 hPa SW 1.7 mph /  2.7 km/h 5.8 mph /  9.3 km/h 79 % 0.00 in /  0 mm
05:26 69.5 °F /  20.8 °C 63.1 °F /  17.3 °C 29.95 in /  1014.1 hPa SW 0.2 mph /  0.3 km/h 2.3 mph /  3.7 km/h 80 % 0.00 in /  0 mm
05:31 69.5 °F /  20.8 °C 63.1 °F /  17.3 °C 29.95 in /  1014.1 hPa SSW 1.7 mph /  2.7 km/h 4.0 mph /  6.4 km/h 80 % 0.00 in /  0 mm
05:36 69.4 °F /  20.8 °C 63.0 °F /  17.2 °C 29.95 in /  1014.1 hPa WSW 1.2 mph /  1.9 km/h 3.5 mph /  5.6 km/h 80 % 0.00 in /  0 mm
05:41 69.4 °F /  20.8 °C 63.0 °F /  17.2 °C 29.95 in /  1014.1 hPa SSW 1.1 mph /  1.8 km/h 3.5 mph /  5.6 km/h 80 % 0.00 in /  0 mm
05:46 69.4 °F /  20.8 °C 63.3 °F /  17.4 °C 29.95 in /  1014.1 hPa South 1.2 mph /  1.9 km/h 3.5 mph /  5.6 km/h 81 % 0.00 in /  0 mm
05:51 69.4 °F /  20.8 °C 63.3 °F /  17.4 °C 29.95 in /  1014.1 hPa SSW 1.6 mph /  2.6 km/h 3.5 mph /  5.6 km/h 81 % 0.00 in /  0 mm
05:56 69.4 °F /  20.8 °C 63.3 °F /  17.4 °C 29.96 in /  1014.4 hPa SW 2.4 mph /  3.9 km/h 3.5 mph /  5.6 km/h 81 % 0.00 in /  0 mm
06:01 69.4 °F /  20.8 °C 63.3 °F /  17.4 °C 29.95 in /  1014.1 hPa SW 0.3 mph /  0.5 km/h 1.2 mph /  1.9 km/h 81 % 0.00 in /  0 mm
06:06 69.5 °F /  20.8 °C 63.8 °F /  17.7 °C 29.95 in /  1014.1 hPa SSW 2.7 mph /  4.3 km/h 4.0 mph /  6.4 km/h 82 % 0.00 in /  0 mm
06:11 69.6 °F /  20.9 °C 63.9 °F /  17.7 °C 29.95 in /  1014.1 hPa SSW 3.1 mph /  5 km/h 4.6 mph /  7.4 km/h 82 % 0.00 in /  0 mm
06:16 69.7 °F /  20.9 °C 64.0 °F /  17.8 °C 29.95 in /  1014.1 hPa SSW 2.1 mph /  3.4 km/h 3.5 mph /  5.6 km/h 82 % 0.00 in /  0 mm
06:21 69.8 °F /  21 °C 64.1 °F /  17.8 °C 29.95 in /  1014.1 hPa SW 1.3 mph /  2.1 km/h 2.3 mph /  3.7 km/h 82 % 0.00 in /  0 mm
06:26 69.9 °F /  21.1 °C 64.2 °F /  17.9 °C 29.95 in /  1014.1 hPa SW 2.2 mph /  3.5 km/h 4.6 mph /  7.4 km/h 82 % 0.00 in /  0 mm
06:31 70.0 °F /  21.1 °C 64.2 °F /  17.9 °C 29.95 in /  1014.1 hPa SSW 0.4 mph /  0.6 km/h 2.3 mph /  3.7 km/h 82 % 0.00 in /  0 mm
06:36 70.1 °F /  21.2 °C 64.3 °F /  17.9 °C 29.95 in /  1014.1 hPa WSW 1.1 mph /  1.8 km/h 4.6 mph /  7.4 km/h 82 % 0.00 in /  0 mm
06:41 70.1 °F /  21.2 °C 64.3 °F /  17.9 °C 29.95 in /  1014.1 hPa SW 0.3 mph /  0.5 km/h 2.0 mph /  3.2 km/h 82 % 0.00 in /  0 mm
06:46 70.2 °F /  21.2 °C 64.4 °F /  18 °C 29.96 in /  1014.4 hPa West 1.5 mph /  2.4 km/h 5.8 mph /  9.3 km/h 82 % 0.00 in /  0 mm
06:51 70.2 °F /  21.2 °C 64.4 °F /  18 °C 29.96 in /  1014.4 hPa Calm   1.2 mph /  1.9 km/h 82 % 0.00 in /  0 mm
06:56 70.3 °F /  21.3 °C 64.5 °F /  18.1 °C 29.95 in /  1014.1 hPa SSW 0.3 mph /  0.5 km/h 3.5 mph /  5.6 km/h 82 % 0.00 in /  0 mm
07:01 70.3 °F /  21.3 °C 64.5 °F /  18.1 °C 29.95 in /  1014.1 hPa SSW 1.9 mph /  3.1 km/h 4.0 mph /  6.4 km/h 82 % 0.00 in /  0 mm
07:06 70.3 °F /  21.3 °C 64.5 °F /  18.1 °C 29.95 in /  1014.1 hPa WSW 0.9 mph /  1.4 km/h 2.3 mph /  3.7 km/h 82 % 0.00 in /  0 mm
07:11 70.4 °F /  21.3 °C 64.6 °F /  18.1 °C 29.95 in /  1014.1 hPa WSW 1.1 mph /  1.8 km/h 6.9 mph /  11.1 km/h 82 % 0.00 in /  0 mm
07:16 70.4 °F /  21.3 °C 65.0 °F /  18.3 °C 29.95 in /  1014.1 hPa SSE 0.7 mph /  1.1 km/h 2.3 mph /  3.7 km/h 83 % 0.00 in /  0 mm
07:21 70.5 °F /  21.4 °C 64.7 °F /  18.2 °C 29.95 in /  1014.1 hPa WSW 1.2 mph /  1.9 km/h 3.5 mph /  5.6 km/h 82 % 0.00 in /  0 mm
07:26 70.5 °F /  21.4 °C 65.1 °F /  18.4 °C 29.95 in /  1014.1 hPa SW 0.4 mph /  0.6 km/h 3.5 mph /  5.6 km/h 83 % 0.00 in /  0 mm
07:31 70.6 °F /  21.4 °C 65.2 °F /  18.4 °C 29.96 in /  1014.4 hPa South 0.3 mph /  0.5 km/h 2.3 mph /  3.7 km/h 83 % 0.00 in /  0 mm
07:37 70.7 °F /  21.5 °C 65.3 °F /  18.5 °C 29.96 in /  1014.4 hPa WSW 0.3 mph /  0.5 km/h 3.5 mph /  5.6 km/h 83 % 0.00 in /  0 mm
07:42 70.8 °F /  21.6 °C 65.4 °F /  18.6 °C 29.96 in /  1014.4 hPa SW 1.2 mph /  1.9 km/h 3.5 mph /  5.6 km/h 83 % 0.00 in /  0 mm
07:47 70.9 °F /  21.6 °C 65.5 °F /  18.6 °C 29.97 in /  1014.8 hPa WSW 0.8 mph /  1.3 km/h 3.5 mph /  5.6 km/h 83 % 0.00 in /  0 mm
07:52 71.0 °F /  21.7 °C 65.6 °F /  18.7 °C 29.96 in /  1014.4 hPa Calm   3.5 mph /  5.6 km/h 83 % 0.00 in /  0 mm
07:57 71.1 °F /  21.7 °C 65.7 °F /  18.7 °C 29.96 in /  1014.4 hPa WSW 0.7 mph /  1.1 km/h 2.3 mph /  3.7 km/h 83 % 0.00 in /  0 mm
08:02 71.3 °F /  21.8 °C 65.9 °F /  18.8 °C 29.97 in /  1014.8 hPa WSW 1.4 mph /  2.3 km/h 4.0 mph /  6.4 km/h 83 % 0.00 in /  0 mm
08:07 71.4 °F /  21.9 °C 66.0 °F /  18.9 °C 29.97 in /  1014.8 hPa SW 2.4 mph /  3.9 km/h 4.6 mph /  7.4 km/h 83 % 0.00 in /  0 mm
08:12 71.6 °F /  22 °C 66.2 °F /  19 °C 29.97 in /  1014.8 hPa SW 0.3 mph /  0.5 km/h 3.5 mph /  5.6 km/h 83 % 0.00 in /  0 mm
08:17 71.8 °F /  22.1 °C 66.4 °F /  19.1 °C 29.97 in /  1014.8 hPa WSW 3.3 mph /  5.3 km/h 10.0 mph /  16.1 km/h 83 % 0.00 in /  0 mm
08:22 72.0 °F /  22.2 °C 66.6 °F /  19.2 °C 29.97 in /  1014.8 hPa South 1.7 mph /  2.7 km/h 5.8 mph /  9.3 km/h 83 % 0.00 in /  0 mm
08:23 72.1 °F /  22.3 °C 66.6 °F /  19.2 °C 29.97 in /  1014.8 hPa West 2.9 mph /  4.7 km/h 4.6 mph /  7.4 km/h 83 % 0.00 in /  0 mm
08:28 72.4 °F /  22.4 °C 66.6 °F /  19.2 °C 29.97 in /  1014.8 hPa SSW 1.9 mph /  3.1 km/h 3.5 mph /  5.6 km/h 82 % 0.00 in /  0 mm
08:33 72.6 °F /  22.6 °C 66.4 °F /  19.1 °C 29.97 in /  1014.8 hPa SW 0.4 mph /  0.6 km/h 4.6 mph /  7.4 km/h 81 % 0.00 in /  0 mm
08:38 72.8 °F /  22.7 °C 67.0 °F /  19.4 °C 29.97 in /  1014.8 hPa SSW 0.1 mph /  0.2 km/h 1.2 mph /  1.9 km/h 82 % 0.00 in /  0 mm
08:43 73.1 °F /  22.8 °C 66.9 °F /  19.4 °C 29.97 in /  1014.8 hPa SW 1.4 mph /  2.3 km/h 2.3 mph /  3.7 km/h 81 % 0.00 in /  0 mm
08:48 73.3 °F /  22.9 °C 67.1 °F /  19.5 °C 29.97 in /  1014.8 hPa WSW 3.4 mph /  5.5 km/h 5.0 mph /  8 km/h 81 % 0.00 in /  0 mm
08:53 73.6 °F /  23.1 °C 67.0 °F /  19.4 °C 29.97 in /  1014.8 hPa SSW 1.4 mph /  2.3 km/h 4.6 mph /  7.4 km/h 80 % 0.00 in /  0 mm
08:58 73.9 °F /  23.3 °C 67.3 °F /  19.6 °C 29.97 in /  1014.8 hPa SW 3.4 mph /  5.5 km/h 6.9 mph /  11.1 km/h 80 % 0.00 in /  0 mm
09:03 74.1 °F /  23.4 °C 67.5 °F /  19.7 °C 29.96 in /  1014.4 hPa SSW 1.8 mph /  2.9 km/h 6.9 mph /  11.1 km/h 80 % 0.00 in /  0 mm
09:08 74.4 °F /  23.6 °C 67.5 °F /  19.7 °C 29.96 in /  1014.4 hPa SW 5.8 mph /  9.3 km/h 6.9 mph /  11.1 km/h 79 % 0.00 in /  0 mm
09:14 74.7 °F /  23.7 °C 67.4 °F /  19.7 °C 29.96 in /  1014.4 hPa SSW 2.7 mph /  4.3 km/h 8.1 mph /  13 km/h 78 % 0.00 in /  0 mm
09:19 74.9 °F /  23.8 °C 67.6 °F /  19.8 °C 29.96 in /  1014.4 hPa SW 1.8 mph /  2.9 km/h 3.5 mph /  5.6 km/h 78 % 0.00 in /  0 mm
09:24 75.2 °F /  24 °C 67.9 °F /  19.9 °C 29.96 in /  1014.4 hPa SSW 2.5 mph /  4 km/h 4.6 mph /  7.4 km/h 78 % 0.00 in /  0 mm
09:29 75.5 °F /  24.2 °C 68.5 °F /  20.3 °C 29.96 in /  1014.4 hPa SW 2.9 mph /  4.7 km/h 6.0 mph /  9.7 km/h 79 % 0.00 in /  0 mm
09:34 75.8 °F /  24.3 °C 68.4 °F /  20.2 °C 29.96 in /  1014.4 hPa SW 2.5 mph /  4 km/h 5.8 mph /  9.3 km/h 78 % 0.00 in /  0 mm
09:39 76.3 °F /  24.6 °C 68.9 °F /  20.5 °C 29.96 in /  1014.4 hPa SSW 1.6 mph /  2.6 km/h 3.5 mph /  5.6 km/h 78 % 0.00 in /  0 mm
09:44 76.8 °F /  24.9 °C 68.7 °F /  20.4 °C 29.96 in /  1014.4 hPa Calm   3.5 mph /  5.6 km/h 76 % 0.00 in /  0 mm
09:47 77.1 °F /  25.1 °C 68.9 °F /  20.5 °C 29.96 in /  1014.4 hPa SW 1.2 mph /  1.9 km/h 3.0 mph /  4.8 km/h 76 % 0.00 in /  0 mm
09:52 77.6 °F /  25.3 °C 69.4 °F /  20.8 °C 29.96 in /  1014.4 hPa SW 0.7 mph /  1.1 km/h 2.0 mph /  3.2 km/h 76 % 0.00 in /  0 mm
09:57 78.0 °F /  25.6 °C 69.0 °F /  20.6 °C 29.96 in /  1014.4 hPa SSW 2.9 mph /  4.7 km/h 4.6 mph /  7.4 km/h 74 % 0.00 in /  0 mm
10:02 78.4 °F /  25.8 °C 69.4 °F /  20.8 °C 29.96 in /  1014.4 hPa SW 0.1 mph /  0.2 km/h 2.3 mph /  3.7 km/h 74 % 0.00 in /  0 mm
10:07 78.7 °F /  25.9 °C 69.7 °F /  20.9 °C 29.97 in /  1014.8 hPa West 1.5 mph /  2.4 km/h 3.5 mph /  5.6 km/h 74 % 0.00 in /  0 mm
10:12 79.0 °F /  26.1 °C 69.2 °F /  20.7 °C 29.97 in /  1014.8 hPa WSW 2.7 mph /  4.3 km/h 5.8 mph /  9.3 km/h 72 % 0.00 in /  0 mm
10:14 79.1 °F /  26.2 °C 69.7 °F /  20.9 °C 29.97 in /  1014.8 hPa West 2.6 mph /  4.2 km/h 4.6 mph /  7.4 km/h 73 % 0.00 in /  0 mm
10:19 79.4 °F /  26.3 °C 70.0 °F /  21.1 °C 29.96 in /  1014.4 hPa SW 2.0 mph /  3.2 km/h 4.6 mph /  7.4 km/h 73 % 0.00 in /  0 mm
10:24 79.6 °F /  26.4 °C 69.4 °F /  20.8 °C 29.96 in /  1014.4 hPa SSW 0.4 mph /  0.6 km/h 2.3 mph /  3.7 km/h 71 % 0.00 in /  0 mm
10:29 79.8 °F /  26.6 °C 70.0 °F /  21.1 °C 29.96 in /  1014.4 hPa SSW 1.1 mph /  1.8 km/h 3.5 mph /  5.6 km/h 72 % 0.00 in /  0 mm
10:34 80.2 °F /  26.8 °C 70.8 °F /  21.6 °C 29.96 in /  1014.4 hPa SSW 0.8 mph /  1.3 km/h 3.5 mph /  5.6 km/h 73 % 0.00 in /  0 mm
10:39 80.6 °F /  27 °C 70.7 °F /  21.5 °C 29.96 in /  1014.4 hPa SW 0.8 mph /  1.3 km/h 2.3 mph /  3.7 km/h 72 % 0.00 in /  0 mm
10:42 80.8 °F /  27.1 °C 70.5 °F /  21.4 °C 29.96 in /  1014.4 hPa SW 2.3 mph /  3.7 km/h 3.5 mph /  5.6 km/h 71 % 0.00 in /  0 mm
10:47 81.1 °F /  27.3 °C 70.4 °F /  21.3 °C 29.96 in /  1014.4 hPa SSW 2.7 mph /  4.3 km/h 3.5 mph /  5.6 km/h 70 % 0.00 in /  0 mm
10:52 81.2 °F /  27.3 °C 70.1 °F /  21.2 °C 29.96 in /  1014.4 hPa South 1.5 mph /  2.4 km/h 4.6 mph /  7.4 km/h 69 % 0.00 in /  0 mm
10:57 81.4 °F /  27.4 °C 71.5 °F /  21.9 °C 29.96 in /  1014.4 hPa SSW 1.4 mph /  2.3 km/h 2.3 mph /  3.7 km/h 72 % 0.00 in /  0 mm
11:02 81.8 °F /  27.7 °C 71.1 °F /  21.7 °C 29.96 in /  1014.4 hPa SW 0.5 mph /  0.8 km/h 3.5 mph /  5.6 km/h 70 % 0.00 in /  0 mm
11:07 82.1 °F /  27.8 °C 70.9 °F /  21.6 °C 29.96 in /  1014.4 hPa SSW 3.5 mph /  5.6 km/h 6.9 mph /  11.1 km/h 69 % 0.00 in /  0 mm
11:12 82.5 °F /  28.1 °C 71.3 °F /  21.8 °C 29.97 in /  1014.8 hPa SSW 0.9 mph /  1.4 km/h 4.0 mph /  6.4 km/h 69 % 0.00 in /  0 mm
11:17 82.8 °F /  28.2 °C 71.2 °F /  21.8 °C 29.96 in /  1014.4 hPa SSE 0.1 mph /  0.2 km/h 3.5 mph /  5.6 km/h 68 % 0.00 in /  0 mm
11:22 83.1 °F /  28.4 °C 71.9 °F /  22.2 °C 29.96 in /  1014.4 hPa SW 0.1 mph /  0.2 km/h 4.6 mph /  7.4 km/h 69 % 0.00 in /  0 mm
11:27 83.6 °F /  28.7 °C 72.3 °F /  22.4 °C 29.97 in /  1014.8 hPa WSW 1.3 mph /  2.1 km/h 4.0 mph /  6.4 km/h 69 % 0.00 in /  0 mm
11:32 84.0 °F /  28.9 °C 71.9 °F /  22.2 °C 29.97 in /  1014.8 hPa SE 3.5 mph /  5.6 km/h 5.8 mph /  9.3 km/h 67 % 0.00 in /  0 mm
11:37 84.4 °F /  29.1 °C 71.8 °F /  22.1 °C 29.97 in /  1014.8 hPa South 4.1 mph /  6.6 km/h 10.4 mph /  16.7 km/h 66 % 0.00 in /  0 mm
11:40 84.7 °F /  29.3 °C 72.1 °F /  22.3 °C 29.97 in /  1014.8 hPa SSW 4.3 mph /  6.9 km/h 5.0 mph /  8 km/h 66 % 0.00 in /  0 mm
11:45 85.2 °F /  29.6 °C 73.0 °F /  22.8 °C 29.96 in /  1014.4 hPa SSW 2.3 mph /  3.7 km/h 4.6 mph /  7.4 km/h 67 % 0.00 in /  0 mm
11:50 85.8 °F /  29.9 °C 72.7 °F /  22.6 °C 29.95 in /  1014.1 hPa SSW 0.9 mph /  1.4 km/h 3.5 mph /  5.6 km/h 65 % 0.00 in /  0 mm
11:55 86.2 °F /  30.1 °C 72.6 °F /  22.6 °C 29.95 in /  1014.1 hPa SW 2.2 mph /  3.5 km/h 3.5 mph /  5.6 km/h 64 % 0.00 in /  0 mm
12:01 86.4 °F /  30.2 °C 72.8 °F /  22.7 °C 29.95 in /  1014.1 hPa Calm     64 % 0.00 in /  0 mm
12:06 86.5 °F /  30.3 °C 71.9 °F /  22.2 °C 29.95 in /  1014.1 hPa Calm   1.2 mph /  1.9 km/h 62 % 0.00 in /  0 mm
12:11 86.8 °F /  30.4 °C 72.2 °F /  22.3 °C 29.95 in /  1014.1 hPa SSE 0.7 mph /  1.1 km/h 2.3 mph /  3.7 km/h 62 % 0.00 in /  0 mm
12:16 86.8 °F /  30.4 °C 71.2 °F /  21.8 °C 29.95 in /  1014.1 hPa SSE 0.4 mph /  0.6 km/h 5.8 mph /  9.3 km/h 60 % 0.00 in /  0 mm
12:21 86.6 °F /  30.3 °C 72.0 °F /  22.2 °C 29.95 in /  1014.1 hPa South 3.2 mph /  5.1 km/h 5.8 mph /  9.3 km/h 62 % 0.00 in /  0 mm
12:26 86.2 °F /  30.1 °C 71.2 °F /  21.8 °C 29.95 in /  1014.1 hPa SSW 1.5 mph /  2.4 km/h 3.5 mph /  5.6 km/h 61 % 0.00 in /  0 mm
12:31 86.3 °F /  30.2 °C 73.1 °F /  22.8 °C 29.94 in /  1013.8 hPa SSE 1.3 mph /  2.1 km/h 3.5 mph /  5.6 km/h 65 % 0.00 in /  0 mm
12:36 86.4 °F /  30.2 °C 72.8 °F /  22.7 °C 29.95 in /  1014.1 hPa SSW 2.2 mph /  3.5 km/h 4.0 mph /  6.4 km/h 64 % 0.00 in /  0 mm
12:41 86.1 °F /  30.1 °C 72.0 °F /  22.2 °C 29.95 in /  1014.1 hPa SE 1.0 mph /  1.6 km/h 3.5 mph /  5.6 km/h 63 % 0.00 in /  0 mm
12:46 85.7 °F /  29.8 °C 71.7 °F /  22.1 °C 29.95 in /  1014.1 hPa SSE 1.0 mph /  1.6 km/h 3.0 mph /  4.8 km/h 63 % 0.00 in /  0 mm
12:51 85.3 °F /  29.6 °C 71.3 °F /  21.8 °C 29.94 in /  1013.8 hPa SSW 0.5 mph /  0.8 km/h 2.3 mph /  3.7 km/h 63 % 0.00 in /  0 mm
12:56 84.8 °F /  29.3 °C 71.3 °F /  21.8 °C 29.94 in /  1013.8 hPa SSE 1.6 mph /  2.6 km/h 3.5 mph /  5.6 km/h 64 % 0.00 in /  0 mm
13:01 84.4 °F /  29.1 °C 71.8 °F /  22.1 °C 29.94 in /  1013.8 hPa South 0.1 mph /  0.2 km/h 1.2 mph /  1.9 km/h 66 % 0.00 in /  0 mm
13:06 84.5 °F /  29.2 °C 71.9 °F /  22.2 °C 29.94 in /  1013.8 hPa SSE 1.3 mph /  2.1 km/h 4.6 mph /  7.4 km/h 66 % 0.00 in /  0 mm
13:11 84.6 °F /  29.2 °C 71.5 °F /  21.9 °C 29.93 in /  1013.4 hPa SSW 4.6 mph /  7.4 km/h 5.8 mph /  9.3 km/h 65 % 0.00 in /  0 mm
13:16 84.9 °F /  29.4 °C 71.8 °F /  22.1 °C 29.93 in /  1013.4 hPa SSW 1.5 mph /  2.4 km/h 5.0 mph /  8 km/h 65 % 0.00 in /  0 mm
13:21 85.3 °F /  29.6 °C 72.6 °F /  22.6 °C 29.93 in /  1013.4 hPa SSE 2.9 mph /  4.7 km/h 10.0 mph /  16.1 km/h 66 % 0.00 in /  0 mm
13:26 85.4 °F /  29.7 °C 72.3 °F /  22.4 °C 29.93 in /  1013.4 hPa SW 4.4 mph /  7.1 km/h 8.1 mph /  13 km/h 65 % 0.00 in /  0 mm
13:29 85.4 °F /  29.7 °C 71.4 °F /  21.9 °C 29.93 in /  1013.4 hPa ESE 2.8 mph /  4.5 km/h 4.6 mph /  7.4 km/h 63 % 0.00 in /  0 mm
13:34 85.6 °F /  29.8 °C 71.6 °F /  22 °C 29.93 in /  1013.4 hPa SSE 1.2 mph /  1.9 km/h 5.8 mph /  9.3 km/h 63 % 0.00 in /  0 mm
13:39 85.7 °F /  29.8 °C 72.1 °F /  22.3 °C 29.93 in /  1013.4 hPa SSE 1.3 mph /  2.1 km/h 4.6 mph /  7.4 km/h 64 % 0.00 in /  0 mm
13:44 85.8 °F /  29.9 °C 72.2 °F /  22.3 °C 29.93 in /  1013.4 hPa South 1.5 mph /  2.4 km/h 6.9 mph /  11.1 km/h 64 % 0.00 in /  0 mm
13:49 86.2 °F /  30.1 °C 73.0 °F /  22.8 °C 29.92 in /  1013.1 hPa SW 3.7 mph /  6 km/h 10.4 mph /  16.7 km/h 65 % 0.00 in /  0 mm
13:54 86.6 °F /  30.3 °C 72.5 °F /  22.5 °C 29.92 in /  1013.1 hPa South 1.6 mph /  2.6 km/h 6.0 mph /  9.7 km/h 63 % 0.00 in /  0 mm
13:59 86.8 °F /  30.4 °C 72.7 °F /  22.6 °C 29.92 in /  1013.1 hPa SE 3.1 mph /  5 km/h 6.9 mph /  11.1 km/h 63 % 0.00 in /  0 mm
14:04 87.0 °F /  30.6 °C 72.9 °F /  22.7 °C 29.92 in /  1013.1 hPa SSW 5.0 mph /  8 km/h 13.0 mph /  20.9 km/h 63 % 0.00 in /  0 mm
14:09 87.1 °F /  30.6 °C 72.0 °F /  22.2 °C 29.92 in /  1013.1 hPa SW 2.8 mph /  4.5 km/h 5.0 mph /  8 km/h 61 % 0.00 in /  0 mm
14:14 87.2 °F /  30.7 °C 72.1 °F /  22.3 °C 29.92 in /  1013.1 hPa South 2.9 mph /  4.7 km/h 8.0 mph /  12.9 km/h 61 % 0.00 in /  0 mm
14:19 87.2 °F /  30.7 °C 71.6 °F /  22 °C 29.92 in /  1013.1 hPa South 2.0 mph /  3.2 km/h 8.1 mph /  13 km/h 60 % 0.00 in /  0 mm
14:21 87.2 °F /  30.7 °C 71.6 °F /  22 °C 29.92 in /  1013.1 hPa SSE 2.1 mph /  3.4 km/h 4.6 mph /  7.4 km/h 60 % 0.00 in /  0 mm
14:26 87.3 °F /  30.7 °C 73.2 °F /  22.9 °C 29.92 in /  1013.1 hPa ESE 2.7 mph /  4.3 km/h 3.5 mph /  5.6 km/h 63 % 0.00 in /  0 mm
14:31 87.4 °F /  30.8 °C 72.8 °F /  22.7 °C 29.91 in /  1012.8 hPa South 2.8 mph /  4.5 km/h 8.0 mph /  12.9 km/h 62 % 0.00 in /  0 mm
14:37 87.5 °F /  30.8 °C 71.9 °F /  22.2 °C 29.91 in /  1012.8 hPa SE 2.6 mph /  4.2 km/h 3.5 mph /  5.6 km/h 60 % 0.00 in /  0 mm
14:42 87.5 °F /  30.8 °C 72.9 °F /  22.7 °C 29.90 in /  1012.4 hPa SSE 1.0 mph /  1.6 km/h 8.1 mph /  13 km/h 62 % 0.00 in /  0 mm
14:47 87.5 °F /  30.8 °C 72.4 °F /  22.4 °C 29.91 in /  1012.8 hPa SSW 3.4 mph /  5.5 km/h 9.2 mph /  14.8 km/h 61 % 0.00 in /  0 mm
14:52 87.5 °F /  30.8 °C 72.4 °F /  22.4 °C 29.90 in /  1012.4 hPa South 3.1 mph /  5 km/h 9.2 mph /  14.8 km/h 61 % 0.00 in /  0 mm
14:54 87.4 °F /  30.8 °C 72.8 °F /  22.7 °C 29.90 in /  1012.4 hPa NE 1.0 mph /  1.6 km/h 3.5 mph /  5.6 km/h 62 % 0.00 in /  0 mm
14:59 87.4 °F /  30.8 °C 72.8 °F /  22.7 °C 29.90 in /  1012.4 hPa SW 3.8 mph /  6.1 km/h 6.9 mph /  11.1 km/h 62 % 0.00 in /  0 mm
15:04 87.6 °F /  30.9 °C 73.0 °F /  22.8 °C 29.90 in /  1012.4 hPa SW 3.1 mph /  5 km/h 7.0 mph /  11.3 km/h 62 % 0.00 in /  0 mm
15:09 87.8 °F /  31 °C 73.2 °F /  22.9 °C 29.89 in /  1012.1 hPa SSW 2.5 mph /  4 km/h 5.0 mph /  8 km/h 62 % 0.00 in /  0 mm
15:10 87.8 °F /  31 °C 72.7 °F /  22.6 °C 29.89 in /  1012.1 hPa West 3.5 mph /  5.6 km/h 4.6 mph /  7.4 km/h 61 % 0.00 in /  0 mm
15:15 88.0 °F /  31.1 °C 72.4 °F /  22.4 °C 29.89 in /  1012.1 hPa SSW 4.4 mph /  7.1 km/h 4.6 mph /  7.4 km/h 60 % 0.00 in /  0 mm
15:20 87.8 °F /  31 °C 72.2 °F /  22.3 °C 29.89 in /  1012.1 hPa SSW 2.5 mph /  4 km/h 5.8 mph /  9.3 km/h 60 % 0.00 in /  0 mm
15:25 87.4 °F /  30.8 °C 72.3 °F /  22.4 °C 29.89 in /  1012.1 hPa SSW 3.8 mph /  6.1 km/h 8.1 mph /  13 km/h 61 % 0.00 in /  0 mm
15:30 87.4 °F /  30.8 °C 72.8 °F /  22.7 °C 29.89 in /  1012.1 hPa SE 1.4 mph /  2.3 km/h 11.5 mph /  18.5 km/h 62 % 0.00 in /  0 mm
15:31 87.4 °F /  30.8 °C 73.3 °F /  22.9 °C 29.89 in /  1012.1 hPa SE 1.2 mph /  1.9 km/h 3.5 mph /  5.6 km/h 63 % 0.00 in /  0 mm
15:36 87.6 °F /  30.9 °C 73.0 °F /  22.8 °C 29.89 in /  1012.1 hPa SE 1.3 mph /  2.1 km/h 4.0 mph /  6.4 km/h 62 % 0.00 in /  0 mm
15:41 87.4 °F /  30.8 °C 73.3 °F /  22.9 °C 29.89 in /  1012.1 hPa South 1.5 mph /  2.4 km/h 4.0 mph /  6.4 km/h 63 % 0.00 in /  0 mm
15:46 87.0 °F /  30.6 °C 72.4 °F /  22.4 °C 29.89 in /  1012.1 hPa SSW 2.9 mph /  4.7 km/h 5.8 mph /  9.3 km/h 62 % 0.00 in /  0 mm
15:51 86.9 °F /  30.5 °C 72.3 °F /  22.4 °C 29.89 in /  1012.1 hPa SSE 2.4 mph /  3.9 km/h 6.0 mph /  9.7 km/h 62 % 0.00 in /  0 mm
15:56 86.5 °F /  30.3 °C 71.5 °F /  21.9 °C 29.89 in /  1012.1 hPa South 1.3 mph /  2.1 km/h 3.5 mph /  5.6 km/h 61 % 0.00 in /  0 mm
16:01 86.3 °F /  30.2 °C 72.2 °F /  22.3 °C 29.89 in /  1012.1 hPa South 3.6 mph /  5.8 km/h 4.0 mph /  6.4 km/h 63 % 0.00 in /  0 mm
16:06 86.3 °F /  30.2 °C 72.7 °F /  22.6 °C 29.88 in /  1011.7 hPa South 1.9 mph /  3.1 km/h 3.5 mph /  5.6 km/h 64 % 0.00 in /  0 mm
16:11 86.3 °F /  30.2 °C 72.2 °F /  22.3 °C 29.88 in /  1011.7 hPa SE 1.3 mph /  2.1 km/h 5.8 mph /  9.3 km/h 63 % 0.00 in /  0 mm
16:16 86.3 °F /  30.2 °C 73.1 °F /  22.8 °C 29.88 in /  1011.7 hPa South 2.9 mph /  4.7 km/h 6.9 mph /  11.1 km/h 65 % 0.00 in /  0 mm
16:21 86.4 °F /  30.2 °C 72.3 °F /  22.4 °C 29.88 in /  1011.7 hPa SSE 2.7 mph /  4.3 km/h 8.0 mph /  12.9 km/h 63 % 0.00 in /  0 mm
16:26 86.0 °F /  30 °C 71.9 °F /  22.2 °C 29.88 in /  1011.7 hPa SE 0.9 mph /  1.4 km/h 5.8 mph /  9.3 km/h 63 % 0.00 in /  0 mm
16:31 85.7 °F /  29.8 °C 72.1 °F /  22.3 °C 29.88 in /  1011.7 hPa SSE 3.3 mph /  5.3 km/h 5.8 mph /  9.3 km/h 64 % 0.00 in /  0 mm
16:36 85.4 °F /  29.7 °C 71.8 °F /  22.1 °C 29.88 in /  1011.7 hPa South 3.5 mph /  5.6 km/h 6.9 mph /  11.1 km/h 64 % 0.00 in /  0 mm
16:41 85.4 °F /  29.7 °C 72.3 °F /  22.4 °C 29.87 in /  1011.4 hPa SSE 2.7 mph /  4.3 km/h 10.4 mph /  16.7 km/h 65 % 0.00 in /  0 mm
16:46 85.4 °F /  29.7 °C 72.3 °F /  22.4 °C 29.87 in /  1011.4 hPa SE 1.8 mph /  2.9 km/h 5.8 mph /  9.3 km/h 65 % 0.00 in /  0 mm
16:51 85.1 °F /  29.5 °C 71.5 °F /  21.9 °C 29.87 in /  1011.4 hPa SSE 5.0 mph /  8 km/h 6.9 mph /  11.1 km/h 64 % 0.00 in /  0 mm
16:56 84.8 °F /  29.3 °C 71.7 °F /  22.1 °C 29.87 in /  1011.4 hPa South 4.0 mph /  6.4 km/h 8.0 mph /  12.9 km/h 65 % 0.00 in /  0 mm
17:02 84.3 °F /  29.1 °C 71.2 °F /  21.8 °C 29.86 in /  1011.1 hPa South 3.5 mph /  5.6 km/h 8.1 mph /  13 km/h 65 % 0.00 in /  0 mm
17:06 84.0 °F /  28.9 °C 71.0 °F /  21.7 °C 29.86 in /  1011.1 hPa SE 3.7 mph /  6 km/h 5.8 mph /  9.3 km/h 65 % 0.00 in /  0 mm
17:11 83.6 °F /  28.7 °C 71.0 °F /  21.7 °C 29.86 in /  1011.1 hPa SW 4.7 mph /  7.6 km/h 10.0 mph /  16.1 km/h 66 % 0.00 in /  0 mm
17:16 83.2 °F /  28.4 °C 70.7 °F /  21.5 °C 29.86 in /  1011.1 hPa SSW 4.2 mph /  6.8 km/h 9.2 mph /  14.8 km/h 66 % 0.00 in /  0 mm
17:21 82.9 °F /  28.3 °C 70.8 °F /  21.6 °C 29.86 in /  1011.1 hPa SE 1.9 mph /  3.1 km/h 3.5 mph /  5.6 km/h 67 % 0.00 in /  0 mm
17:26 82.6 °F /  28.1 °C 71.0 °F /  21.7 °C 29.86 in /  1011.1 hPa South 2.8 mph /  4.5 km/h 5.8 mph /  9.3 km/h 68 % 0.00 in /  0 mm
17:31 82.4 °F /  28 °C 70.3 °F /  21.3 °C 29.85 in /  1010.7 hPa SSE 3.3 mph /  5.3 km/h 8.1 mph /  13 km/h 67 % 0.00 in /  0 mm
17:37 82.0 °F /  27.8 °C 70.4 °F /  21.3 °C 29.85 in /  1010.7 hPa South 2.5 mph /  4 km/h 10.4 mph /  16.7 km/h 68 % 0.00 in /  0 mm
17:42 81.6 °F /  27.6 °C 70.0 °F /  21.1 °C 29.85 in /  1010.7 hPa SE 2.6 mph /  4.2 km/h 4.6 mph /  7.4 km/h 68 % 0.00 in /  0 mm
17:47 81.4 °F /  27.4 °C 70.2 °F /  21.2 °C 29.85 in /  1010.7 hPa SSW 2.6 mph /  4.2 km/h 8.1 mph /  13 km/h 69 % 0.00 in /  0 mm
17:52 81.2 °F /  27.3 °C 70.1 °F /  21.2 °C 29.85 in /  1010.7 hPa SSW 3.6 mph /  5.8 km/h 7.0 mph /  11.3 km/h 69 % 0.00 in /  0 mm
17:55 81.1 °F /  27.3 °C 70.0 °F /  21.1 °C 29.85 in /  1010.7 hPa SSE 2.1 mph /  3.4 km/h 5.8 mph /  9.3 km/h 69 % 0.00 in /  0 mm
18:00 80.8 °F /  27.1 °C 69.7 °F /  20.9 °C 29.85 in /  1010.7 hPa SW 2.7 mph /  4.3 km/h 6.9 mph /  11.1 km/h 69 % 0.00 in /  0 mm
18:05 80.6 °F /  27 °C 69.5 °F /  20.8 °C 29.85 in /  1010.7 hPa SW 3.0 mph /  4.8 km/h 6.9 mph /  11.1 km/h 69 % 0.00 in /  0 mm
18:10 80.4 °F /  26.9 °C 69.3 °F /  20.7 °C 29.85 in /  1010.7 hPa South 1.3 mph /  2.1 km/h 2.3 mph /  3.7 km/h 69 % 0.00 in /  0 mm
18:15 80.2 °F /  26.8 °C 69.1 °F /  20.6 °C 29.85 in /  1010.7 hPa SSW 1.7 mph /  2.7 km/h 4.6 mph /  7.4 km/h 69 % 0.00 in /  0 mm
18:20 80.1 °F /  26.7 °C 69.0 °F /  20.6 °C 29.85 in /  1010.7 hPa SSE 1.8 mph /  2.9 km/h 5.8 mph /  9.3 km/h 69 % 0.00 in /  0 mm
18:25 79.9 °F /  26.6 °C 68.8 °F /  20.4 °C 29.85 in /  1010.7 hPa SSE 2.7 mph /  4.3 km/h 6.0 mph /  9.7 km/h 69 % 0.00 in /  0 mm
18:30 79.7 °F /  26.5 °C 68.6 °F /  20.3 °C 29.85 in /  1010.7 hPa South 3.4 mph /  5.5 km/h 5.8 mph /  9.3 km/h 69 % 0.00 in /  0 mm
18:35 79.5 °F /  26.4 °C 68.4 °F /  20.2 °C 29.86 in /  1011.1 hPa SE 2.0 mph /  3.2 km/h 4.0 mph /  6.4 km/h 69 % 0.00 in /  0 mm
18:40 79.4 °F /  26.3 °C 68.8 °F /  20.4 °C 29.86 in /  1011.1 hPa SSW 2.9 mph /  4.7 km/h 6.0 mph /  9.7 km/h 70 % 0.00 in /  0 mm
18:45 79.2 °F /  26.2 °C 68.6 °F /  20.3 °C 29.86 in /  1011.1 hPa SSW 4.0 mph /  6.4 km/h 6.9 mph /  11.1 km/h 70 % 0.00 in /  0 mm
18:47 79.2 °F /  26.2 °C 68.6 °F /  20.3 °C 29.86 in /  1011.1 hPa SSW 3.2 mph /  5.1 km/h 6.0 mph /  9.7 km/h 70 % 0.00 in /  0 mm
18:51 79.1 °F /  26.2 °C 68.5 °F /  20.3 °C 29.86 in /  1011.1 hPa SSE 2.3 mph /  3.7 km/h 4.6 mph /  7.4 km/h 70 % 0.00 in /  0 mm
18:56 79.0 °F /  26.1 °C 68.8 °F /  20.4 °C 29.87 in /  1011.4 hPa SSW 5.0 mph /  8 km/h 8.0 mph /  12.9 km/h 71 % 0.00 in /  0 mm
19:01 78.9 °F /  26.1 °C 68.7 °F /  20.4 °C 29.87 in /  1011.4 hPa SSW 6.1 mph /  9.8 km/h 9.0 mph /  14.5 km/h 71 % 0.00 in /  0 mm
19:06 78.8 °F /  26 °C 68.6 °F /  20.3 °C 29.88 in /  1011.7 hPa SW 3.9 mph /  6.3 km/h 6.0 mph /  9.7 km/h 71 % 0.00 in /  0 mm
19:11 78.8 °F /  26 °C 68.6 °F /  20.3 °C 29.88 in /  1011.7 hPa South 3.3 mph /  5.3 km/h 6.9 mph /  11.1 km/h 71 % 0.00 in /  0 mm
19:16 78.7 °F /  25.9 °C 68.5 °F /  20.3 °C 29.88 in /  1011.7 hPa SSW 3.9 mph /  6.3 km/h 6.9 mph /  11.1 km/h 71 % 0.00 in /  0 mm
19:21 78.7 °F /  25.9 °C 68.5 °F /  20.3 °C 29.88 in /  1011.7 hPa East 4.3 mph /  6.9 km/h 9.2 mph /  14.8 km/h 71 % 0.00 in /  0 mm
19:26 78.7 °F /  25.9 °C 68.5 °F /  20.3 °C 29.88 in /  1011.7 hPa SSW 3.9 mph /  6.3 km/h 9.0 mph /  14.5 km/h 71 % 0.00 in /  0 mm
19:31 78.6 °F /  25.9 °C 68.4 °F /  20.2 °C 29.88 in /  1011.7 hPa South 4.7 mph /  7.6 km/h 6.9 mph /  11.1 km/h 71 % 0.00 in /  0 mm
19:36 78.5 °F /  25.8 °C 68.3 °F /  20.2 °C 29.88 in /  1011.7 hPa WSW 2.7 mph /  4.3 km/h 11.5 mph /  18.5 km/h 71 % 0.00 in /  0 mm
19:42 78.5 °F /  25.8 °C 68.3 °F /  20.2 °C 29.88 in /  1011.7 hPa South 5.3 mph /  8.5 km/h 7.0 mph /  11.3 km/h 71 % 0.00 in /  0 mm
19:47 78.4 °F /  25.8 °C 68.6 °F /  20.3 °C 29.88 in /  1011.7 hPa ESE 2.8 mph /  4.5 km/h 9.2 mph /  14.8 km/h 72 % 0.00 in /  0 mm
19:52 78.3 °F /  25.7 °C 68.5 °F /  20.3 °C 29.89 in /  1012.1 hPa SSE 3.0 mph /  4.8 km/h 6.9 mph /  11.1 km/h 72 % 0.00 in /  0 mm
19:57 78.3 °F /  25.7 °C 68.5 °F /  20.3 °C 29.89 in /  1012.1 hPa SSW 4.5 mph /  7.2 km/h 8.1 mph /  13 km/h 72 % 0.00 in /  0 mm
20:02 78.2 °F /  25.7 °C 68.4 °F /  20.2 °C 29.89 in /  1012.1 hPa SSW 5.0 mph /  8 km/h 10.4 mph /  16.7 km/h 72 % 0.00 in /  0 mm
20:07 78.2 °F /  25.7 °C 68.4 °F /  20.2 °C 29.89 in /  1012.1 hPa WSW 1.4 mph /  2.3 km/h 5.0 mph /  8 km/h 72 % 0.00 in /  0 mm
20:12 78.1 °F /  25.6 °C 68.7 °F /  20.4 °C 29.89 in /  1012.1 hPa SSW 3.5 mph /  5.6 km/h 8.1 mph /  13 km/h 73 % 0.00 in /  0 mm
20:17 78.1 °F /  25.6 °C 68.7 °F /  20.4 °C 29.90 in /  1012.4 hPa SW 3.8 mph /  6.1 km/h 6.9 mph /  11.1 km/h 73 % 0.00 in /  0 mm
20:22 78.0 °F /  25.6 °C 69.4 °F /  20.8 °C 29.89 in /  1012.1 hPa South 2.5 mph /  4 km/h 4.0 mph /  6.4 km/h 75 % 0.00 in /  0 mm
20:27 77.7 °F /  25.4 °C 69.5 °F /  20.8 °C 29.90 in /  1012.4 hPa SSW 3.9 mph /  6.3 km/h 5.8 mph /  9.3 km/h 76 % 0.00 in /  0 mm
20:32 77.4 °F /  25.2 °C 69.6 °F /  20.9 °C 29.90 in /  1012.4 hPa South 2.2 mph /  3.5 km/h 8.1 mph /  13 km/h 77 % 0.00 in /  0 mm
20:37 77.0 °F /  25 °C 70.0 °F /  21.1 °C 29.90 in /  1012.4 hPa South 3.2 mph /  5.1 km/h 4.6 mph /  7.4 km/h 79 % 0.00 in /  0 mm
20:42 76.6 °F /  24.8 °C 70.0 °F /  21.1 °C 29.90 in /  1012.4 hPa SSW 2.0 mph /  3.2 km/h 3.5 mph /  5.6 km/h 80 % 0.01 in /  0.25 mm
20:47 76.1 °F /  24.5 °C 69.8 °F /  21 °C 29.90 in /  1012.4 hPa South 1.6 mph /  2.6 km/h 3.5 mph /  5.6 km/h 81 % 0.01 in /  0.25 mm
20:52 75.6 °F /  24.2 °C 69.7 °F /  20.9 °C 29.91 in /  1012.8 hPa SSW 2.1 mph /  3.4 km/h 3.5 mph /  5.6 km/h 82 % 0.02 in /  0.51 mm
20:57 75.2 °F /  24 °C 69.3 °F /  20.7 °C 29.91 in /  1012.8 hPa SSW 1.8 mph /  2.9 km/h 3.5 mph /  5.6 km/h 82 % 0.02 in /  0.51 mm
21:03 74.8 °F /  23.8 °C 69.3 °F /  20.7 °C 29.91 in /  1012.8 hPa SSE 1.6 mph /  2.6 km/h 3.5 mph /  5.6 km/h 83 % 0.02 in /  0.51 mm
21:08 74.5 °F /  23.6 °C 69.0 °F /  20.6 °C 29.91 in /  1012.8 hPa SSW 1.9 mph /  3.1 km/h 3.5 mph /  5.6 km/h 83 % 0.02 in /  0.51 mm
21:13 74.2 °F /  23.4 °C 69.1 °F /  20.6 °C 29.92 in /  1013.1 hPa SE 1.2 mph /  1.9 km/h 3.5 mph /  5.6 km/h 84 % 0.02 in /  0.51 mm
21:18 73.9 °F /  23.3 °C 68.8 °F /  20.4 °C 29.92 in /  1013.1 hPa SSW 1.0 mph /  1.6 km/h 3.5 mph /  5.6 km/h 84 % 0.02 in /  0.51 mm
21:23 73.8 °F /  23.2 °C 68.7 °F /  20.4 °C 29.92 in /  1013.1 hPa SSW 1.9 mph /  3.1 km/h 4.6 mph /  7.4 km/h 84 % 0.02 in /  0.51 mm
21:28 73.7 °F /  23.2 °C 68.6 °F /  20.3 °C 29.93 in /  1013.4 hPa South 2.7 mph /  4.3 km/h 5.8 mph /  9.3 km/h 84 % 0.02 in /  0.51 mm
21:33 73.6 °F /  23.1 °C 68.5 °F /  20.3 °C 29.93 in /  1013.4 hPa SE 2.2 mph /  3.5 km/h 3.5 mph /  5.6 km/h 84 % 0.02 in /  0.51 mm
21:38 73.5 °F /  23.1 °C 68.4 °F /  20.2 °C 29.93 in /  1013.4 hPa SSE 1.0 mph /  1.6 km/h 3.5 mph /  5.6 km/h 84 % 0.01 in /  0.25 mm
21:43 73.5 °F /  23.1 °C 68.4 °F /  20.2 °C 29.92 in /  1013.1 hPa SSW 1.3 mph /  2.1 km/h 3.5 mph /  5.6 km/h 84 % 0.01 in /  0.25 mm
21:48 73.5 °F /  23.1 °C 68.4 °F /  20.2 °C 29.92 in /  1013.1 hPa South 1.4 mph /  2.3 km/h 3.5 mph /  5.6 km/h 84 % 0.00 in /  0 mm
21:53 73.5 °F /  23.1 °C 68.4 °F /  20.2 °C 29.92 in /  1013.1 hPa SSW 3.5 mph /  5.6 km/h 6.9 mph /  11.1 km/h 84 % 0.00 in /  0 mm
21:58 73.5 °F /  23.1 °C 68.4 °F /  20.2 °C 29.92 in /  1013.1 hPa SE 1.1 mph /  1.8 km/h 3.5 mph /  5.6 km/h 84 % 0.00 in /  0 mm
22:03 73.6 °F /  23.1 °C 68.5 °F /  20.3 °C 29.92 in /  1013.1 hPa SSW 1.8 mph /  2.9 km/h 3.5 mph /  5.6 km/h 84 % 0.00 in /  0 mm
22:08 73.7 °F /  23.2 °C 68.2 °F /  20.1 °C 29.92 in /  1013.1 hPa SE 1.5 mph /  2.4 km/h 3.5 mph /  5.6 km/h 83 % 0.00 in /  0 mm
22:13 73.8 °F /  23.2 °C 68.3 °F /  20.2 °C 29.92 in /  1013.1 hPa SSW 2.1 mph /  3.4 km/h 5.8 mph /  9.3 km/h 83 % 0.00 in /  0 mm
22:18 73.8 °F /  23.2 °C 68.7 °F /  20.4 °C 29.93 in /  1013.4 hPa South 1.8 mph /  2.9 km/h 4.0 mph /  6.4 km/h 84 % 0.00 in /  0 mm
22:23 73.9 °F /  23.3 °C 68.8 °F /  20.4 °C 29.92 in /  1013.1 hPa SSW 2.2 mph /  3.5 km/h 3.5 mph /  5.6 km/h 84 % 0.00 in /  0 mm
22:28 73.9 °F /  23.3 °C 68.8 °F /  20.4 °C 29.93 in /  1013.4 hPa South 2.0 mph /  3.2 km/h 3.5 mph /  5.6 km/h 84 % 0.00 in /  0 mm
22:33 73.9 °F /  23.3 °C 68.8 °F /  20.4 °C 29.93 in /  1013.4 hPa SSW 2.7 mph /  4.3 km/h 3.5 mph /  5.6 km/h 84 % 0.00 in /  0 mm
22:38 73.9 °F /  23.3 °C 68.8 °F /  20.4 °C 29.92 in /  1013.1 hPa South 2.1 mph /  3.4 km/h 5.8 mph /  9.3 km/h 84 % 0.00 in /  0 mm
22:43 74.0 °F /  23.3 °C 68.5 °F /  20.3 °C 29.92 in /  1013.1 hPa South 1.4 mph /  2.3 km/h 5.8 mph /  9.3 km/h 83 % 0.00 in /  0 mm
22:48 74.1 °F /  23.4 °C 68.6 °F /  20.3 °C 29.92 in /  1013.1 hPa SSW 2.5 mph /  4 km/h 5.8 mph /  9.3 km/h 83 % 0.00 in /  0 mm
22:53 74.1 °F /  23.4 °C 68.6 °F /  20.3 °C 29.92 in /  1013.1 hPa SSW 0.4 mph /  0.6 km/h 4.6 mph /  7.4 km/h 83 % 0.00 in /  0 mm
22:58 74.2 °F /  23.4 °C 68.7 °F /  20.4 °C 29.92 in /  1013.1 hPa South 1.7 mph /  2.7 km/h 3.5 mph /  5.6 km/h 83 % 0.00 in /  0 mm
23:03 74.2 °F /  23.4 °C 68.7 °F /  20.4 °C 29.92 in /  1013.1 hPa SSW 1.5 mph /  2.4 km/h 3.5 mph /  5.6 km/h 83 % 0.00 in /  0 mm
23:08 74.3 °F /  23.5 °C 68.8 °F /  20.4 °C 29.91 in /  1012.8 hPa South 2.1 mph /  3.4 km/h 5.8 mph /  9.3 km/h 83 % 0.00 in /  0 mm
23:13 74.3 °F /  23.5 °C 68.8 °F /  20.4 °C 29.91 in /  1012.8 hPa South 1.4 mph /  2.3 km/h 8.1 mph /  13 km/h 83 % 0.00 in /  0 mm
23:19 74.3 °F /  23.5 °C 68.8 °F /  20.4 °C 29.92 in /  1013.1 hPa SW 1.0 mph /  1.6 km/h 4.6 mph /  7.4 km/h 83 % 0.00 in /  0 mm
23:24 74.4 °F /  23.6 °C 68.9 °F /  20.5 °C 29.92 in /  1013.1 hPa SSW 1.0 mph /  1.6 km/h 3.0 mph /  4.8 km/h 83 % 0.00 in /  0 mm
23:29 74.3 °F /  23.5 °C 68.8 °F /  20.4 °C 29.92 in /  1013.1 hPa South 1.7 mph /  2.7 km/h 3.5 mph /  5.6 km/h 83 % 0.00 in /  0 mm
23:34 74.4 °F /  23.6 °C 68.9 °F /  20.5 °C 29.92 in /  1013.1 hPa SSW 0.7 mph /  1.1 km/h 4.0 mph /  6.4 km/h 83 % 0.00 in /  0 mm
23:39 74.4 °F /  23.6 °C 68.9 °F /  20.5 °C 29.91 in /  1012.8 hPa South 0.6 mph /  1 km/h 3.5 mph /  5.6 km/h 83 % 0.00 in /  0 mm
23:44 74.4 °F /  23.6 °C 68.5 °F /  20.3 °C 29.91 in /  1012.8 hPa South 1.5 mph /  2.4 km/h 3.5 mph /  5.6 km/h 82 % 0.00 in /  0 mm
23:48 74.4 °F /  23.6 °C 68.9 °F /  20.5 °C 29.91 in /  1012.8 hPa South 1.5 mph /  2.4 km/h 4.0 mph /  6.4 km/h 83 % 0.00 in /  0 mm
23:52 74.4 °F /  23.6 °C 68.9 °F /  20.5 °C 29.91 in /  1012.8 hPa SSW 1.5 mph /  2.4 km/h 3.5 mph /  5.6 km/h 83 % 0.00 in /  0 mm
23:57 74.4 °F /  23.6 °C 68.9 °F /  20.5 °C 29.91 in /  1012.8 hPa SSW 1.6 mph /  2.6 km/h 3.5 mph /  5.6 km/h 83 % 0.00 in /  0 mm
Crab Meadow Weather
Compliments of Weather Underground - 3 mb

Script developed by  Jim McMurry - jmcmurry@mwt.net Adapted for the template by  Wim van der Kuil - Leuven-Template.eu

Weather Terms: Heat Index - The apparent temperature that describes the combined effect of high temperatures and high levels of humidity, which reduces the body's ability to cool itself.